createdAt,value
2022-08-29T00:00:45.206Z,16.60
2022-08-29T00:01:45.361Z,16.61
2022-08-29T00:02:45.195Z,16.61
2022-08-29T00:03:45.212Z,16.52
2022-08-29T00:04:45.199Z,16.61
2022-08-29T00:05:45.204Z,16.49
2022-08-29T00:06:45.214Z,16.58
2022-08-29T00:07:45.197Z,16.50
2022-08-29T00:08:45.193Z,16.49
2022-08-29T00:09:45.203Z,16.52
2022-08-29T00:10:45.207Z,16.53
2022-08-29T00:11:46.623Z,16.49
2022-08-29T00:12:45.235Z,16.53
2022-08-29T00:13:45.221Z,16.57
2022-08-29T00:14:45.340Z,16.56
2022-08-29T00:15:45.462Z,16.60
2022-08-29T00:16:45.237Z,16.49
2022-08-29T00:17:45.211Z,16.50
2022-08-29T00:18:45.245Z,16.48
2022-08-29T00:19:45.228Z,16.48
2022-08-29T00:20:45.228Z,16.49
2022-08-29T00:21:45.245Z,16.52
2022-08-29T00:22:45.220Z,16.52
2022-08-29T00:23:45.229Z,16.58
2022-08-29T00:24:45.255Z,16.53
2022-08-29T00:25:45.223Z,16.53
2022-08-29T00:26:45.286Z,16.46
2022-08-29T00:27:45.270Z,16.52
2022-08-29T00:28:45.251Z,16.57
2022-08-29T00:29:45.251Z,16.56
2022-08-29T00:30:45.231Z,16.41
2022-08-29T00:31:45.380Z,16.60
2022-08-29T00:32:45.269Z,16.56
2022-08-29T00:33:45.238Z,16.56
2022-08-29T00:34:45.254Z,16.60
2022-08-29T00:35:45.266Z,16.52
2022-08-29T00:36:49.081Z,16.60
2022-08-29T00:37:45.254Z,16.53
2022-08-29T00:38:45.295Z,16.56
2022-08-29T00:39:45.265Z,16.42
2022-08-29T00:40:51.097Z,16.49
2022-08-29T00:41:45.335Z,16.48
2022-08-29T00:42:45.280Z,16.42
2022-08-29T00:43:45.263Z,16.50
2022-08-29T00:44:45.273Z,16.49
2022-08-29T00:45:45.349Z,16.49
2022-08-29T00:46:45.291Z,16.43
2022-08-29T00:47:45.280Z,16.42
2022-08-29T00:48:45.285Z,16.35
2022-08-29T00:49:45.286Z,16.41
2022-08-29T00:50:45.286Z,16.42
2022-08-29T00:51:45.285Z,16.35
2022-08-29T00:52:45.308Z,16.39
2022-08-29T00:53:45.313Z,16.27
2022-08-29T00:54:45.293Z,16.30
2022-08-29T00:55:50.573Z,16.33
2022-08-29T00:56:45.293Z,16.35
2022-08-29T00:57:45.289Z,16.39
2022-08-29T00:58:45.296Z,16.38
2022-08-29T00:59:45.309Z,16.34
2022-08-29T01:00:45.336Z,16.33
2022-08-29T01:01:45.345Z,16.34
2022-08-29T01:02:45.327Z,16.31
2022-08-29T01:03:45.299Z,16.33
2022-08-29T01:04:45.322Z,16.31
2022-08-29T01:05:45.301Z,16.30
2022-08-29T01:06:45.294Z,16.34
2022-08-29T01:07:45.308Z,16.31
2022-08-29T01:08:45.306Z,16.27
2022-08-29T01:09:45.317Z,16.25
2022-08-29T01:10:45.350Z,16.20
2022-08-29T01:11:45.319Z,16.31
2022-08-29T01:12:45.307Z,16.30
2022-08-29T01:13:45.335Z,16.30
2022-08-29T01:14:45.341Z,16.33
2022-08-29T01:15:45.336Z,16.24
2022-08-29T01:16:45.376Z,16.28
2022-08-29T01:17:45.320Z,16.27
2022-08-29T01:20:28.370Z,16.27
2022-08-29T01:21:28.363Z,16.30
2022-08-29T01:22:28.387Z,16.25
2022-08-29T01:23:28.365Z,16.34
2022-08-29T01:24:28.380Z,16.31
2022-08-29T01:25:28.398Z,16.28
2022-08-29T01:26:28.383Z,16.25
2022-08-29T01:27:28.374Z,16.23
2022-08-29T01:28:28.383Z,16.23
2022-08-29T01:29:28.384Z,16.30
2022-08-29T01:30:28.376Z,16.27
2022-08-29T01:31:37.736Z,16.25
2022-08-29T01:32:28.407Z,16.25
2022-08-29T01:33:28.378Z,16.20
2022-08-29T01:34:28.393Z,16.30
2022-08-29T01:35:28.380Z,16.23
2022-08-29T01:36:28.388Z,16.17
2022-08-29T01:37:28.406Z,16.23
2022-08-29T01:38:28.380Z,16.21
2022-08-29T01:39:28.381Z,16.17
2022-08-29T01:40:28.492Z,16.12
2022-08-29T01:41:28.391Z,16.20
2022-08-29T01:42:28.424Z,16.20
2022-08-29T01:43:28.397Z,16.15
2022-08-29T01:44:28.395Z,16.15
2022-08-29T01:45:28.428Z,16.17
2022-08-29T01:46:28.412Z,16.20
2022-08-29T01:47:28.408Z,16.17
2022-08-29T01:48:28.423Z,16.11
2022-08-29T01:49:28.420Z,16.09
2022-08-29T01:50:28.423Z,16.12
2022-08-29T01:51:28.410Z,16.09
2022-08-29T01:52:28.414Z,16.08
2022-08-29T01:53:28.427Z,16.05
2022-08-29T01:54:28.474Z,16.11
2022-08-29T01:55:28.415Z,16.07
2022-08-29T01:56:28.426Z,16.04
2022-08-29T01:57:28.422Z,15.97
2022-08-29T01:58:28.431Z,16.04
2022-08-29T01:59:28.426Z,16.07
2022-08-29T02:00:28.459Z,16.09
2022-08-29T02:01:28.508Z,16.04
2022-08-29T02:02:28.472Z,15.97
2022-08-29T02:03:28.446Z,15.92
2022-08-29T02:04:28.436Z,16.01
2022-08-29T02:05:28.442Z,16.01
2022-08-29T02:06:28.448Z,15.94
2022-08-29T02:07:28.450Z,15.94
2022-08-29T02:08:28.452Z,16.01
2022-08-29T02:09:28.464Z,15.97
2022-08-29T02:10:28.437Z,15.97
2022-08-29T02:11:28.456Z,16.02
2022-08-29T02:12:28.456Z,16.02
2022-08-29T02:13:28.460Z,16.01
2022-08-29T02:14:28.471Z,15.96
2022-08-29T02:15:28.448Z,15.89
2022-08-29T02:16:28.618Z,15.90
2022-08-29T02:17:28.464Z,15.87
2022-08-29T02:18:28.467Z,15.87
2022-08-29T02:19:28.496Z,15.94
2022-08-29T02:20:28.459Z,15.84
2022-08-29T02:21:28.478Z,15.89
2022-08-29T02:22:28.476Z,15.90
2022-08-29T02:23:31.208Z,15.87
2022-08-29T02:24:28.466Z,15.80
2022-08-29T02:25:28.491Z,15.89
2022-08-29T02:26:28.475Z,15.80
2022-08-29T02:27:28.479Z,15.82
2022-08-29T02:28:28.480Z,15.80
2022-08-29T02:29:37.080Z,15.76
2022-08-29T02:30:28.478Z,15.75
2022-08-29T02:31:28.638Z,15.84
2022-08-29T02:32:28.488Z,15.78
2022-08-29T02:33:29.047Z,15.74
2022-08-29T02:34:28.474Z,15.72
2022-08-29T02:35:28.483Z,15.80
2022-08-29T02:36:28.496Z,15.76
2022-08-29T02:37:28.501Z,15.78
2022-08-29T02:38:28.487Z,15.76
2022-08-29T02:39:28.492Z,15.78
2022-08-29T02:40:31.695Z,15.74
2022-08-29T02:41:28.490Z,15.75
2022-08-29T02:42:28.488Z,15.72
2022-08-29T02:43:28.511Z,15.71
2022-08-29T02:44:28.496Z,15.75
2022-08-29T02:45:28.501Z,15.64
2022-08-29T02:46:28.577Z,15.74
2022-08-29T02:47:28.508Z,15.69
2022-08-29T02:48:28.502Z,15.71
2022-08-29T02:49:28.501Z,15.69
2022-08-29T02:50:28.536Z,15.72
2022-08-29T02:51:28.500Z,15.69
2022-08-29T02:52:28.511Z,15.65
2022-08-29T02:53:28.510Z,15.68
2022-08-29T02:54:28.515Z,15.69
2022-08-29T02:55:28.512Z,15.71
2022-08-29T02:56:28.537Z,15.68
2022-08-29T02:57:28.515Z,15.67
2022-08-29T02:58:28.519Z,15.64
2022-08-29T02:59:28.523Z,15.71
2022-08-29T03:00:28.556Z,15.64
2022-08-29T03:01:28.584Z,15.50
2022-08-29T03:02:28.541Z,15.53
2022-08-29T03:03:28.527Z,15.56
2022-08-29T03:04:28.548Z,15.50
2022-08-29T03:05:28.549Z,15.46
2022-08-29T03:06:28.523Z,15.51
2022-08-29T03:07:28.538Z,15.43
2022-08-29T03:08:28.546Z,15.44
2022-08-29T03:09:28.560Z,15.41
2022-08-29T03:10:28.561Z,15.49
2022-08-29T03:11:28.531Z,15.44
2022-08-29T03:12:28.525Z,15.43
2022-08-29T03:13:28.542Z,15.41
2022-08-29T03:14:28.554Z,15.41
2022-08-29T03:15:28.547Z,15.53
2022-08-29T03:16:28.573Z,15.44
2022-08-29T03:17:28.530Z,15.56
2022-08-29T03:18:28.538Z,15.50
2022-08-29T03:19:28.590Z,15.46
2022-08-29T03:20:28.554Z,15.44
2022-08-29T03:21:28.597Z,15.53
2022-08-29T03:22:28.555Z,15.46
2022-08-29T03:23:28.540Z,15.39
2022-08-29T03:24:28.548Z,15.44
2022-08-29T03:25:28.557Z,15.39
2022-08-29T03:26:28.564Z,15.49
2022-08-29T03:27:28.556Z,15.44
2022-08-29T03:28:28.554Z,15.41
2022-08-29T03:29:28.593Z,15.44
2022-08-29T03:30:28.559Z,15.43
2022-08-29T03:31:28.607Z,15.43
2022-08-29T03:32:28.566Z,15.47
2022-08-29T03:33:28.563Z,15.44
2022-08-29T03:34:28.563Z,15.50
2022-08-29T03:35:28.555Z,15.41
2022-08-29T03:36:28.573Z,15.38
2022-08-29T03:37:28.580Z,15.46
2022-08-29T03:38:28.591Z,15.46
2022-08-29T03:39:28.563Z,15.50
2022-08-29T03:40:28.672Z,15.41
2022-08-29T03:41:28.574Z,15.53
2022-08-29T03:42:28.590Z,15.46
2022-08-29T03:43:28.589Z,15.54
2022-08-29T03:44:28.595Z,15.51
2022-08-29T03:45:28.575Z,15.44
2022-08-29T03:46:28.643Z,15.56
2022-08-29T03:47:28.578Z,15.49
2022-08-29T03:48:28.580Z,15.50
2022-08-29T03:49:28.594Z,15.44
2022-08-29T03:50:28.572Z,15.39
2022-08-29T03:51:29.437Z,15.44
2022-08-29T03:52:28.575Z,15.38
2022-08-29T03:53:28.618Z,15.41
2022-08-29T03:54:28.590Z,15.34
2022-08-29T03:55:28.622Z,15.34
2022-08-29T03:56:29.563Z,15.34
2022-08-29T03:57:28.590Z,15.35
2022-08-29T03:58:28.606Z,15.32
2022-08-29T03:59:28.618Z,15.36
2022-08-29T04:00:28.618Z,15.35
2022-08-29T04:01:28.685Z,15.41
2022-08-29T04:02:28.702Z,15.39
2022-08-29T04:03:31.487Z,15.34
2022-08-29T04:04:28.614Z,15.35
2022-08-29T04:05:28.651Z,15.41
2022-08-29T04:06:28.641Z,15.35
2022-08-29T04:07:28.594Z,15.35
2022-08-29T04:08:28.625Z,15.39
2022-08-29T04:09:28.607Z,15.38
2022-08-29T04:10:28.619Z,15.36
2022-08-29T04:11:28.633Z,15.36
2022-08-29T04:12:28.622Z,15.23
2022-08-29T04:13:28.619Z,15.23
2022-08-29T04:14:28.647Z,15.31
2022-08-29T04:15:28.642Z,15.28
2022-08-29T04:16:30.531Z,15.19
2022-08-29T04:17:28.628Z,15.23
2022-08-29T04:18:28.624Z,15.25
2022-08-29T04:19:28.613Z,15.17
2022-08-29T04:20:28.647Z,15.27
2022-08-29T04:21:28.649Z,15.20
2022-08-29T04:22:28.622Z,15.23
2022-08-29T04:23:28.614Z,15.13
2022-08-29T04:24:28.618Z,15.16
2022-08-29T04:25:28.631Z,15.17
2022-08-29T04:26:37.472Z,15.17
2022-08-29T04:27:28.619Z,15.16
2022-08-29T04:28:28.629Z,15.16
2022-08-29T04:29:28.632Z,15.17
2022-08-29T04:30:28.640Z,15.17
2022-08-29T04:31:28.748Z,15.14
2022-08-29T04:32:28.643Z,15.14
2022-08-29T04:33:28.637Z,15.20
2022-08-29T04:34:28.636Z,15.13
2022-08-29T04:35:28.643Z,15.13
2022-08-29T04:36:28.651Z,15.14
2022-08-29T04:37:28.637Z,15.13
2022-08-29T04:38:28.667Z,15.14
2022-08-29T04:39:28.631Z,15.11
2022-08-29T04:40:28.719Z,15.10
2022-08-29T04:41:28.639Z,15.06
2022-08-29T04:42:28.646Z,15.11
2022-08-29T04:43:28.650Z,15.21
2022-08-29T04:44:28.661Z,15.09
2022-08-29T04:45:28.636Z,15.13
2022-08-29T04:46:28.683Z,15.14
2022-08-29T04:47:28.658Z,15.09
2022-08-29T04:48:28.667Z,15.07
2022-08-29T04:49:28.677Z,15.02
2022-08-29T04:50:28.647Z,14.95
2022-08-29T04:51:28.664Z,14.95
2022-08-29T04:52:28.667Z,14.96
2022-08-29T04:53:28.668Z,15.06
2022-08-29T04:54:28.677Z,15.03
2022-08-29T04:55:28.685Z,15.06
2022-08-29T04:56:28.651Z,15.16
2022-08-29T04:57:28.654Z,15.10
2022-08-29T04:58:28.664Z,15.13
2022-08-29T04:59:28.693Z,15.21
2022-08-29T05:00:28.724Z,15.11
2022-08-29T05:01:28.693Z,15.17
2022-08-29T05:04:39.083Z,15.19
2022-08-29T05:05:39.088Z,15.23
2022-08-29T05:06:39.108Z,15.14
2022-08-29T05:07:39.859Z,15.20
2022-08-29T05:08:39.068Z,15.25
2022-08-29T05:09:39.921Z,15.17
2022-08-29T05:10:39.943Z,15.35
2022-08-29T05:11:39.116Z,15.36
2022-08-29T05:12:40.050Z,15.39
2022-08-29T05:13:40.073Z,15.36
2022-08-29T05:14:39.607Z,15.43
2022-08-29T05:15:39.666Z,15.44
2022-08-29T05:16:39.107Z,15.51
2022-08-29T05:17:39.716Z,15.41
2022-08-29T05:18:40.745Z,15.57
2022-08-29T05:19:42.865Z,15.54
2022-08-29T05:20:31.538Z,15.57
2022-08-29T05:21:31.554Z,15.50
2022-08-29T05:22:31.554Z,15.53
2022-08-29T05:23:31.539Z,15.51
2022-08-29T05:24:31.551Z,15.53
2022-08-29T05:25:31.545Z,15.60
2022-08-29T05:26:31.545Z,15.68
2022-08-29T05:27:31.560Z,15.62
2022-08-29T05:28:31.539Z,15.67
2022-08-29T05:29:31.547Z,15.62
2022-08-29T05:30:34.532Z,15.69
2022-08-29T05:31:31.667Z,15.72
2022-08-29T05:32:31.548Z,15.68
2022-08-29T05:33:31.537Z,15.71
2022-08-29T05:34:34.330Z,15.78
2022-08-29T05:35:31.556Z,15.72
2022-08-29T05:36:31.572Z,15.69
2022-08-29T05:37:31.546Z,15.84
2022-08-29T05:38:31.587Z,15.87
2022-08-29T05:39:31.573Z,15.86
2022-08-29T05:40:31.583Z,15.86
2022-08-29T05:41:31.569Z,15.87
2022-08-29T05:42:31.561Z,15.84
2022-08-29T05:43:31.558Z,15.93
2022-08-29T05:44:34.964Z,16.01
2022-08-29T05:45:31.548Z,16.00
2022-08-29T05:46:31.614Z,15.87
2022-08-29T05:47:31.563Z,15.86
2022-08-29T05:48:31.564Z,15.74
2022-08-29T05:49:31.587Z,15.75
2022-08-29T05:50:31.571Z,15.80
2022-08-29T05:51:34.884Z,15.76
2022-08-29T05:52:31.567Z,15.71
2022-08-29T05:53:31.582Z,15.74
2022-08-29T05:54:31.588Z,15.72
2022-08-29T05:55:31.559Z,15.76
2022-08-29T05:56:31.601Z,15.82
2022-08-29T05:57:31.603Z,15.82
2022-08-29T05:58:31.582Z,15.86
2022-08-29T05:59:31.587Z,15.83
2022-08-29T06:00:31.595Z,15.90
2022-08-29T06:01:32.658Z,15.87
2022-08-29T06:02:31.722Z,15.96
2022-08-29T06:03:31.798Z,16.01
2022-08-29T06:04:31.582Z,15.93
2022-08-29T06:05:31.590Z,15.94
2022-08-29T06:06:31.586Z,16.09
2022-08-29T06:07:31.577Z,16.04
2022-08-29T06:08:31.611Z,16.09
2022-08-29T06:09:31.591Z,16.05
2022-08-29T06:10:31.593Z,16.17
2022-08-29T06:11:31.593Z,16.11
2022-08-29T06:12:31.584Z,16.09
2022-08-29T06:13:31.599Z,16.01
2022-08-29T06:14:31.589Z,16.01
2022-08-29T06:15:31.643Z,16.02
2022-08-29T06:16:31.604Z,16.05
2022-08-29T06:17:31.598Z,16.11
2022-08-29T06:18:35.940Z,16.01
2022-08-29T06:19:31.605Z,16.09
2022-08-29T06:20:31.641Z,16.20
2022-08-29T06:21:31.603Z,16.21
2022-08-29T06:22:31.609Z,16.23
2022-08-29T06:23:31.640Z,16.33
2022-08-29T06:24:31.600Z,16.30
2022-08-29T06:25:39.480Z,16.33
2022-08-29T06:26:31.605Z,16.39
2022-08-29T06:27:31.612Z,16.42
2022-08-29T06:28:31.609Z,16.43
2022-08-29T06:29:31.630Z,16.46
2022-08-29T06:30:31.637Z,16.50
2022-08-29T06:31:31.737Z,16.56
2022-08-29T06:32:31.622Z,16.50
2022-08-29T06:33:31.622Z,16.53
2022-08-29T06:34:31.647Z,16.52
2022-08-29T06:35:31.625Z,16.48
2022-08-29T06:36:31.666Z,16.48
2022-08-29T06:37:31.650Z,16.39
2022-08-29T06:38:31.662Z,16.42
2022-08-29T06:39:31.634Z,16.35
2022-08-29T06:40:31.710Z,16.41
2022-08-29T06:41:31.625Z,16.43
2022-08-29T06:42:31.657Z,16.45
2022-08-29T06:43:31.651Z,16.49
2022-08-29T06:44:31.639Z,16.46
2022-08-29T06:45:31.648Z,16.45
2022-08-29T06:46:31.764Z,16.43
2022-08-29T06:47:31.654Z,16.43
2022-08-29T06:48:31.656Z,16.56
2022-08-29T06:49:31.643Z,16.53
2022-08-29T06:50:31.655Z,16.58
2022-08-29T06:51:31.677Z,16.57
2022-08-29T06:52:31.689Z,16.68
2022-08-29T06:53:32.785Z,16.60
2022-08-29T06:54:31.653Z,16.57
2022-08-29T06:55:31.648Z,16.60
2022-08-29T06:56:31.657Z,16.64
2022-08-29T06:57:31.649Z,16.48
2022-08-29T06:58:31.660Z,16.53
2022-08-29T06:59:31.669Z,16.60
2022-08-29T07:00:31.664Z,16.50
2022-08-29T07:01:31.773Z,16.57
2022-08-29T07:02:31.695Z,16.56
2022-08-29T07:03:31.682Z,16.64
2022-08-29T07:04:31.671Z,16.64
2022-08-29T07:05:31.686Z,16.67
2022-08-29T07:06:31.700Z,16.61
2022-08-29T07:07:31.674Z,16.57
2022-08-29T07:08:31.716Z,16.71
2022-08-29T07:09:31.679Z,16.79
2022-08-29T07:10:31.685Z,16.73
2022-08-29T07:11:31.707Z,16.91
2022-08-29T07:12:31.699Z,16.86
2022-08-29T07:13:31.701Z,16.82
2022-08-29T07:14:31.698Z,16.88
2022-08-29T07:15:31.744Z,16.97
2022-08-29T07:16:31.682Z,16.94
2022-08-29T07:17:31.728Z,17.03
2022-08-29T07:18:31.686Z,16.97
2022-08-29T07:19:31.687Z,17.01
2022-08-29T07:20:31.685Z,17.01
2022-08-29T07:21:31.701Z,17.01
2022-08-29T07:22:31.690Z,17.06
2022-08-29T07:23:31.691Z,17.11
2022-08-29T07:24:31.698Z,17.06
2022-08-29T07:25:31.716Z,17.11
2022-08-29T07:26:31.715Z,17.15
2022-08-29T07:27:31.716Z,17.21
2022-08-29T07:28:33.976Z,17.25
2022-08-29T07:29:31.753Z,17.18
2022-08-29T07:30:31.766Z,17.15
2022-08-29T07:31:31.772Z,17.25
2022-08-29T07:32:31.744Z,17.28
2022-08-29T07:33:31.769Z,17.31
2022-08-29T07:34:31.762Z,17.38
2022-08-29T07:35:31.727Z,17.34
2022-08-29T07:36:31.738Z,17.43
2022-08-29T07:37:31.733Z,17.41
2022-08-29T07:38:31.766Z,17.46
2022-08-29T07:39:31.748Z,17.48
2022-08-29T07:40:31.834Z,17.49
2022-08-29T07:41:31.740Z,17.44
2022-08-29T07:42:31.738Z,17.55
2022-08-29T07:43:31.984Z,17.51
2022-08-29T07:44:33.160Z,17.56
2022-08-29T07:45:31.756Z,17.54
2022-08-29T07:46:31.803Z,17.62
2022-08-29T07:47:31.736Z,17.51
2022-08-29T07:48:31.784Z,17.64
2022-08-29T07:49:40.568Z,17.56
2022-08-29T07:50:31.756Z,17.66
2022-08-29T07:51:31.772Z,17.74
2022-08-29T07:52:31.765Z,17.70
2022-08-29T07:53:31.772Z,17.72
2022-08-29T07:54:31.760Z,17.63
2022-08-29T07:55:31.770Z,17.68
2022-08-29T07:56:35.839Z,17.77
2022-08-29T07:57:31.790Z,17.75
2022-08-29T07:58:31.790Z,17.71
2022-08-29T07:59:31.764Z,17.72
2022-08-29T08:00:31.771Z,17.74
2022-08-29T08:01:31.882Z,17.72
2022-08-29T08:02:31.831Z,17.75
2022-08-29T08:03:31.771Z,17.68
2022-08-29T08:04:31.804Z,17.71
2022-08-29T08:05:31.800Z,17.70
2022-08-29T08:06:31.802Z,17.70
2022-08-29T08:07:31.818Z,17.74
2022-08-29T08:08:31.830Z,17.70
2022-08-29T08:09:31.791Z,17.64
2022-08-29T08:10:31.823Z,17.70
2022-08-29T08:11:31.846Z,17.72
2022-08-29T08:12:31.805Z,17.77
2022-08-29T08:13:31.819Z,17.84
2022-08-29T08:14:34.613Z,17.77
2022-08-29T08:15:31.797Z,17.82
2022-08-29T08:16:31.837Z,17.87
2022-08-29T08:17:31.807Z,17.92
2022-08-29T08:18:31.815Z,18.02
2022-08-29T08:19:31.834Z,17.99
2022-08-29T08:20:31.819Z,17.95
2022-08-29T08:21:31.809Z,17.97
2022-08-29T08:22:31.811Z,17.95
2022-08-29T08:23:31.817Z,18.02
2022-08-29T08:24:31.825Z,18.03
2022-08-29T08:25:39.370Z,17.97
2022-08-29T08:26:31.840Z,18.05
2022-08-29T08:27:31.840Z,18.00
2022-08-29T08:28:39.885Z,18.12
2022-08-29T08:29:31.827Z,18.20
2022-08-29T08:30:35.528Z,18.23
2022-08-29T08:31:31.901Z,18.11
2022-08-29T08:32:32.340Z,18.27
2022-08-29T08:33:35.152Z,18.23
2022-08-29T08:34:35.615Z,18.32
2022-08-29T08:35:31.840Z,18.36
2022-08-29T08:36:31.865Z,18.37
2022-08-29T08:37:31.851Z,18.44
2022-08-29T08:38:31.892Z,18.39
2022-08-29T08:39:31.896Z,18.39
2022-08-29T08:40:39.456Z,18.47
2022-08-29T08:41:40.957Z,18.48
2022-08-29T08:44:11.200Z,18.57
2022-08-29T08:45:19.383Z,18.66
2022-08-29T08:46:11.270Z,18.62
2022-08-29T08:47:11.203Z,18.75
2022-08-29T08:48:11.219Z,18.69
2022-08-29T08:49:11.199Z,18.66
2022-08-29T08:50:11.229Z,18.58
2022-08-29T08:51:20.437Z,18.70
2022-08-29T08:52:11.236Z,18.72
2022-08-29T08:53:11.234Z,18.69
2022-08-29T08:54:18.768Z,18.75
2022-08-29T08:55:11.204Z,18.69
2022-08-29T08:56:11.229Z,18.65
2022-08-29T08:57:11.215Z,18.55
2022-08-29T08:58:11.344Z,18.69
2022-08-29T08:59:18.765Z,18.52
2022-08-29T09:00:19.598Z,18.58
2022-08-29T09:01:11.276Z,18.57
2022-08-29T09:02:19.816Z,18.57
2022-08-29T09:03:11.240Z,18.52
2022-08-29T09:04:18.783Z,18.58
2022-08-29T09:05:11.240Z,18.57
2022-08-29T09:06:19.632Z,18.57
2022-08-29T09:07:11.238Z,18.60
2022-08-29T09:08:11.246Z,18.55
2022-08-29T09:09:12.061Z,18.57
2022-08-29T09:10:11.242Z,18.65
2022-08-29T09:11:11.237Z,18.66
2022-08-29T09:12:11.258Z,18.60
2022-08-29T09:13:19.658Z,18.69
2022-08-29T09:14:11.263Z,18.62
2022-08-29T09:15:13.863Z,18.58
2022-08-29T09:16:19.226Z,18.52
2022-08-29T09:17:11.256Z,18.58
2022-08-29T09:18:13.525Z,18.72
2022-08-29T09:19:19.725Z,18.62
2022-08-29T09:20:11.287Z,18.72
2022-08-29T09:21:37.126Z,18.75
2022-08-29T09:22:11.281Z,18.66
2022-08-29T09:23:11.306Z,18.65
2022-08-29T09:24:11.282Z,18.82
2022-08-29T09:25:11.310Z,18.75
2022-08-29T09:26:11.286Z,18.76
2022-08-29T09:27:11.279Z,18.87
2022-08-29T09:28:11.272Z,18.80
2022-08-29T09:29:11.287Z,18.75
2022-08-29T09:30:11.289Z,18.78
2022-08-29T09:31:18.916Z,18.84
2022-08-29T09:32:11.365Z,18.75
2022-08-29T09:33:19.803Z,18.80
2022-08-29T09:34:12.298Z,18.78
2022-08-29T09:35:11.320Z,18.91
2022-08-29T09:36:11.315Z,18.88
2022-08-29T09:37:11.314Z,18.91
2022-08-29T09:38:11.325Z,18.85
2022-08-29T09:39:11.322Z,18.95
2022-08-29T09:40:11.372Z,19.02
2022-08-29T09:41:11.371Z,18.94
2022-08-29T09:42:11.316Z,18.90
2022-08-29T09:43:11.368Z,18.98
2022-08-29T09:44:11.313Z,18.99
2022-08-29T09:45:11.330Z,18.99
2022-08-29T09:46:11.414Z,19.07
2022-08-29T09:47:11.331Z,19.11
2022-08-29T09:48:11.352Z,19.02
2022-08-29T09:49:11.335Z,19.10
2022-08-29T09:50:11.351Z,19.18
2022-08-29T09:51:11.344Z,19.10
2022-08-29T09:52:11.354Z,19.18
2022-08-29T09:53:24.417Z,19.13
2022-08-29T09:54:11.379Z,19.13
2022-08-29T09:55:11.369Z,19.13
2022-08-29T09:56:11.353Z,19.26
2022-08-29T09:57:11.354Z,19.28
2022-08-29T09:58:11.355Z,19.28
2022-08-29T09:59:11.386Z,19.32
2022-08-29T10:00:11.369Z,19.33
2022-08-29T10:01:11.698Z,19.31
2022-08-29T10:02:11.443Z,19.26
2022-08-29T10:03:11.417Z,19.29
2022-08-29T10:04:11.376Z,19.21
2022-08-29T10:05:13.186Z,19.36
2022-08-29T10:06:11.378Z,19.32
2022-08-29T10:07:11.384Z,19.32
2022-08-29T10:08:11.407Z,19.21
2022-08-29T10:09:11.447Z,19.28
2022-08-29T10:10:11.410Z,19.23
2022-08-29T10:11:11.396Z,19.29
2022-08-29T10:12:11.398Z,19.33
2022-08-29T10:13:11.492Z,19.39
2022-08-29T10:14:12.441Z,19.26
2022-08-29T10:15:23.467Z,19.31
2022-08-29T10:16:11.441Z,19.33
2022-08-29T10:17:12.314Z,19.31
2022-08-29T10:18:11.431Z,19.33
2022-08-29T10:19:11.427Z,19.32
2022-08-29T10:20:11.449Z,19.29
2022-08-29T10:21:11.436Z,19.36
2022-08-29T10:22:11.493Z,19.29
2022-08-29T10:23:11.469Z,19.33
2022-08-29T10:24:14.625Z,19.46
2022-08-29T10:25:19.852Z,19.40
2022-08-29T10:26:18.995Z,19.47
2022-08-29T10:27:18.988Z,19.50
2022-08-29T10:28:11.449Z,19.50
2022-08-29T10:29:11.457Z,19.65
2022-08-29T10:30:19.035Z,19.62
2022-08-29T10:31:19.569Z,19.66
2022-08-29T10:32:11.469Z,19.77
2022-08-29T10:33:11.540Z,19.78
2022-08-29T10:34:11.458Z,19.83
2022-08-29T10:35:11.473Z,19.84
2022-08-29T10:36:11.481Z,19.96
2022-08-29T10:37:11.502Z,19.92
2022-08-29T10:38:11.517Z,19.99
2022-08-29T10:39:11.521Z,19.95
2022-08-29T10:40:11.504Z,19.98
2022-08-29T10:41:11.479Z,20.02
2022-08-29T10:42:11.496Z,20.11
2022-08-29T10:43:11.577Z,20.14
2022-08-29T10:44:11.539Z,20.11
2022-08-29T10:45:11.546Z,20.17
2022-08-29T10:46:11.606Z,20.10
2022-08-29T10:47:11.508Z,20.13
2022-08-29T10:48:11.540Z,20.11
2022-08-29T10:49:11.523Z,20.14
2022-08-29T10:50:21.875Z,20.24
2022-08-29T10:51:11.509Z,20.11
2022-08-29T10:52:11.529Z,20.14
2022-08-29T10:53:11.521Z,20.28
2022-08-29T10:54:11.532Z,20.26
2022-08-29T10:55:11.579Z,20.47
2022-08-29T10:56:11.551Z,20.50
2022-08-29T10:57:11.531Z,20.58
2022-08-29T10:58:11.565Z,20.58
2022-08-29T10:59:11.631Z,20.57
2022-08-29T11:00:11.547Z,20.66
2022-08-29T11:01:11.645Z,21.03
2022-08-29T11:02:11.558Z,21.16
2022-08-29T11:03:11.711Z,21.28
2022-08-29T11:04:11.585Z,21.34
2022-08-29T11:05:11.590Z,21.42
2022-08-29T11:06:11.644Z,21.61
2022-08-29T11:07:11.622Z,21.67
2022-08-29T11:08:15.474Z,21.67
2022-08-29T11:09:11.583Z,21.67
2022-08-29T11:10:11.615Z,21.82
2022-08-29T11:11:11.596Z,21.88
2022-08-29T11:12:17.357Z,21.94
2022-08-29T11:13:11.599Z,22.20
2022-08-29T11:14:11.636Z,22.05
2022-08-29T11:15:11.596Z,21.94
2022-08-29T11:16:11.654Z,21.88
2022-08-29T11:17:11.621Z,21.88
2022-08-29T11:18:11.669Z,21.79
2022-08-29T11:19:11.677Z,21.68
2022-08-29T11:20:11.692Z,21.54
2022-08-29T11:21:11.703Z,21.56
2022-08-29T11:22:11.643Z,21.42
2022-08-29T11:23:11.628Z,21.35
2022-08-29T11:24:11.647Z,21.35
2022-08-29T11:25:11.675Z,21.37
2022-08-29T11:26:11.676Z,21.32
2022-08-29T11:27:11.677Z,21.21
2022-08-29T11:28:11.722Z,21.13
2022-08-29T11:29:11.682Z,21.09
2022-08-29T11:30:11.726Z,21.12
2022-08-29T11:31:11.805Z,21.16
2022-08-29T11:32:11.673Z,21.17
2022-08-29T11:33:11.772Z,21.22
2022-08-29T11:34:11.708Z,21.21
2022-08-29T11:35:11.794Z,21.22
2022-08-29T11:36:11.711Z,21.29
2022-08-29T11:37:11.721Z,21.35
2022-08-29T11:38:11.753Z,21.42
2022-08-29T11:39:11.735Z,21.59
2022-08-29T11:40:11.798Z,21.69
2022-08-29T11:41:28.108Z,21.79
2022-08-29T11:42:11.821Z,22.00
2022-08-29T11:43:12.130Z,21.98
2022-08-29T11:44:11.751Z,22.03
2022-08-29T11:45:11.771Z,22.18
2022-08-29T11:46:11.740Z,22.14
2022-08-29T11:47:11.765Z,22.20
2022-08-29T11:48:11.818Z,22.20
2022-08-29T11:49:11.798Z,22.09
2022-08-29T11:50:12.004Z,22.07
2022-08-29T11:51:11.770Z,22.21
2022-08-29T11:52:11.765Z,22.30
2022-08-29T11:53:11.834Z,22.42
2022-08-29T11:54:11.787Z,22.46
2022-08-29T11:55:11.931Z,22.47
2022-08-29T11:56:11.813Z,22.45
2022-08-29T11:57:11.793Z,22.40
2022-08-29T11:58:12.068Z,22.39
2022-08-29T11:59:11.787Z,22.33
2022-08-29T12:00:11.817Z,22.45
2022-08-29T12:01:12.265Z,22.43
2022-08-29T12:02:11.929Z,22.47
2022-08-29T12:03:25.196Z,22.51
2022-08-29T12:04:11.896Z,22.42
2022-08-29T12:05:11.837Z,22.46
2022-08-29T12:06:11.834Z,22.62
2022-08-29T12:07:11.855Z,22.67
2022-08-29T12:08:35.659Z,22.75
2022-08-29T12:09:13.912Z,22.73
2022-08-29T12:10:11.879Z,22.64
2022-08-29T12:11:11.867Z,22.65
2022-08-29T12:12:11.845Z,22.60
2022-08-29T12:13:11.870Z,22.62
2022-08-29T12:14:11.886Z,22.73
2022-08-29T12:15:11.879Z,22.97
2022-08-29T12:16:12.003Z,23.04
2022-08-29T12:17:11.879Z,23.04
2022-08-29T12:18:11.891Z,23.12
2022-08-29T12:19:11.884Z,23.28
2022-08-29T12:20:11.923Z,23.13
2022-08-29T12:21:11.934Z,23.12
2022-08-29T12:22:14.139Z,23.10
2022-08-29T12:23:11.938Z,23.22
2022-08-29T12:24:11.911Z,23.05
2022-08-29T12:25:11.954Z,23.15
2022-08-29T12:26:27.153Z,23.19
2022-08-29T12:27:15.711Z,23.07
2022-08-29T12:28:11.924Z,23.09
2022-08-29T12:29:11.948Z,22.97
2022-08-29T12:30:11.932Z,22.98
2022-08-29T12:31:12.031Z,22.92
2022-08-29T12:32:22.782Z,22.88
2022-08-29T12:33:12.015Z,22.85
2022-08-29T12:34:11.964Z,22.86
2022-08-29T12:35:11.973Z,22.79
2022-08-29T12:36:11.993Z,22.86
2022-08-29T12:37:11.988Z,22.82
2022-08-29T12:38:11.983Z,22.73
2022-08-29T12:39:11.979Z,22.79
2022-08-29T12:40:12.085Z,22.79
2022-08-29T12:41:11.994Z,22.85
2022-08-29T12:42:12.056Z,22.70
2022-08-29T12:43:12.028Z,22.73
2022-08-29T12:44:12.041Z,22.72
2022-08-29T12:45:13.031Z,22.76
2022-08-29T12:46:12.019Z,22.79
2022-08-29T12:47:12.057Z,22.83
2022-08-29T12:48:12.103Z,22.85
2022-08-29T12:49:12.063Z,22.90
2022-08-29T12:50:12.048Z,22.90
2022-08-29T12:51:12.059Z,22.91
2022-08-29T12:52:12.064Z,23.13
2022-08-29T12:53:12.076Z,23.09
2022-08-29T12:54:12.098Z,23.33
2022-08-29T12:55:12.065Z,23.43
2022-08-29T12:56:12.095Z,23.42
2022-08-29T12:57:12.103Z,23.48
2022-08-29T12:58:12.150Z,23.55